Time;durP1;ratioP1;P1;durP2;ratioP2;P2;SDS_P1;SDS_P2;PMS_P1;PMS_P2;Temp;Humidity;BMP_temperature;BMP_pressure;BME280_temperature;BME280_humidity;BME280_pressure;Samples;Min_cycle;Max_cycle;Signal;HPM_P1;HPM_P2
2022/05/09 00:02:08;;;;;;;4.20;1.50;;;;;;;;;;6149209;23;20061;-50
2022/05/09 00:04:35;;;;;;;5.40;1.45;;;;;;;;;;6150955;23;20026;-51
2022/05/09 00:07:01;;;;;;;3.67;1.65;;;;;;;;;;6149457;23;20064;-71
2022/05/09 00:09:35;;;;;;;4.60;1.50;;;;;;;;;;6150779;23;20410;-58
2022/05/09 00:12:02;;;;;;;8.65;1.98;;;;;;;;;;6147441;23;20052;-59
2022/05/09 00:14:28;;;;;;;6.15;2.05;;;;;;;;;;6149954;23;20064;-58
2022/05/09 00:17:01;;;;;;;6.18;1.60;;;;;;;;;;6150104;23;20022;-59
2022/05/09 00:19:27;;;;;;;3.25;1.88;;;;;;;;;;6150148;23;20026;-59
2022/05/09 00:21:54;;;;;;;1.98;1.58;;;;;;;;;;6150068;23;20053;-59
2022/05/09 00:24:27;;;;;;;3.70;2.17;;;;;;;;;;6150377;23;20060;-52
2022/05/09 00:26:53;;;;;;;3.33;1.50;;;;;;;;;;6151638;23;20090;-57
2022/05/09 00:29:23;;;;;;;4.40;1.80;;;;;;;;;;6152009;23;20033;-51
2022/05/09 00:31:56;;;;;;;3.53;1.70;;;;;;;;;;6150711;23;20026;-51
2022/05/09 00:34:23;;;;;;;2.45;1.95;;;;;;;;;;6151083;23;20561;-50
2022/05/09 00:36:52;;;;;;;1.92;1.30;;;;;;;;;;6151901;23;20061;-49
2022/05/09 00:39:25;;;;;;;5.47;1.67;;;;;;;;;;6152316;23;20021;-50
2022/05/09 00:41:52;;;;;;;2.45;1.90;;;;;;;;;;6151115;23;20061;-51
2022/05/09 00:44:20;;;;;;;3.92;1.70;;;;;;;;;;6152929;23;20235;-49
2022/05/09 00:46:55;;;;;;;4.78;1.92;;;;;;;;;;6151559;23;20025;-63
2022/05/09 00:49:25;;;;;;;6.90;1.80;;;;;;;;;;6150963;23;20032;-49
2022/05/09 00:52:08;;;;;;;2.53;1.52;;;;;;;;;;6151089;23;20550;-49
2022/05/09 00:54:45;;;;;;;2.72;1.60;;;;;;;;;;6152417;23;20053;-48
2022/05/09 00:57:14;;;;;;;4.82;1.70;;;;;;;;;;6149834;23;20056;-52
2022/05/09 00:59:41;;;;;;;3.70;1.75;;;;;;;;;;6150236;23;20021;-48
2022/05/09 01:02:15;;;;;;;2.95;1.67;;;;;;;;;;6151314;23;20026;-52
2022/05/09 01:04:47;;;;;;;6.18;1.67;;;;;;;;;;6152288;23;20080;-48
2022/05/09 01:07:13;;;;;;;3.05;1.80;;;;;;;;;;6151056;23;20053;-49
2022/05/09 01:09:47;;;;;;;3.33;1.90;;;;;;;;;;6152288;23;20022;-48
2022/05/09 01:12:16;;;;;;;5.90;1.77;;;;;;;;;;6150600;23;20064;-50
2022/05/09 01:14:43;;;;;;;5.05;2.30;;;;;;;;;;6152217;23;20493;-49
2022/05/09 01:17:17;;;;;;;4.32;1.50;;;;;;;;;;6150428;23;20471;-50
2022/05/09 01:19:44;;;;;;;4.70;1.80;;;;;;;;;;6152290;23;20063;-50
2022/05/09 01:22:22;;;;;;;7.47;1.95;;;;;;;;;;6150289;23;20049;-49
2022/05/09 01:25:00;;;;;;;4.05;2.05;;;;;;;;;;6150780;23;20049;-63
2022/05/09 01:27:26;;;;;;;4.85;1.90;;;;;;;;;;6151085;23;20022;-49
2022/05/09 01:30:02;;;;;;;3.13;2.10;;;;;;;;;;6150944;23;20064;-51
2022/05/09 01:32:35;;;;;;;3.00;1.58;;;;;;;;;;6151341;23;20060;-53
2022/05/09 01:35:10;;;;;;;4.97;2.03;;;;;;;;;;6150662;23;20395;-50
2022/05/09 01:37:45;;;;;;;5.15;2.17;;;;;;;;;;6149762;23;20029;-51
2022/05/09 01:40:12;;;;;;;2.72;1.83;;;;;;;;;;6151642;23;20021;-50
2022/05/09 01:42:40;;;;;;;4.38;1.98;;;;;;;;;;6151073;23;20018;-56
2022/05/09 01:45:13;;;;;;;4.07;1.80;;;;;;;;;;6150252;23;20482;-67
2022/05/09 01:50:32;;;;;;;5.25;1.63;;;;;;;;;;6150853;23;20068;-66
2022/05/09 01:52:58;;;;;;;3.25;1.85;;;;;;;;;;6151095;23;20479;-66
2022/05/09 01:55:24;;;;;;;6.60;2.17;;;;;;;;;;6150467;23;20513;-66
2022/05/09 01:57:59;;;;;;;4.00;1.60;;;;;;;;;;6151183;23;20637;-66
2022/05/09 02:00:38;;;;;;;3.13;1.50;;;;;;;;;;6146860;23;20053;-63
2022/05/09 02:03:12;;;;;;;3.22;1.55;;;;;;;;;;6150859;23;20245;-56
2022/05/09 02:05:39;;;;;;;3.45;1.80;;;;;;;;;;6151638;23;20033;-52
2022/05/09 02:08:05;;;;;;;1.98;1.33;;;;;;;;;;6151770;23;20045;-48
2022/05/09 02:10:39;;;;;;;3.42;1.63;;;;;;;;;;6150723;23;20052;-51
2022/05/09 02:13:05;;;;;;;2.22;1.45;;;;;;;;;;6150596;23;20048;-50
2022/05/09 02:15:31;;;;;;;8.50;1.50;;;;;;;;;;6150587;23;20057;-51
2022/05/09 02:18:05;;;;;;;2.38;1.67;;;;;;;;;;6150364;23;20052;-52
2022/05/09 02:20:32;;;;;;;2.75;1.67;;;;;;;;;;6151178;23;20030;-49
2022/05/09 02:22:58;;;;;;;2.63;1.70;;;;;;;;;;6150732;23;20048;-59
2022/05/09 02:25:31;;;;;;;3.45;2.08;;;;;;;;;;6150751;23;20057;-59
2022/05/09 02:28:01;;;;;;;2.50;1.52;;;;;;;;;;6150790;23;20021;-59
2022/05/09 02:30:29;;;;;;;5.13;1.85;;;;;;;;;;6150786;23;20025;-59
2022/05/09 02:33:02;;;;;;;4.68;2.00;;;;;;;;;;6149781;23;20064;-59
2022/05/09 02:35:29;;;;;;;3.70;1.67;;;;;;;;;;6150641;23;20060;-59
2022/05/09 02:37:55;;;;;;;3.13;1.60;;;;;;;;;;6151772;23;20049;-52
2022/05/09 02:40:29;;;;;;;3.33;1.95;;;;;;;;;;6149051;23;20075;-52
2022/05/09 02:42:57;;;;;;;3.67;2.13;;;;;;;;;;6151238;23;20026;-68
2022/05/09 02:45:24;;;;;;;3.22;1.98;;;;;;;;;;6151386;23;20025;-69
2022/05/09 02:47:57;;;;;;;2.13;1.67;;;;;;;;;;6150160;23;20418;-69
2022/05/09 02:50:24;;;;;;;4.38;2.00;;;;;;;;;;6150545;23;20048;-69
2022/05/09 02:52:51;;;;;;;2.70;1.40;;;;;;;;;;6150897;23;20026;-69
2022/05/09 02:55:24;;;;;;;2.97;1.70;;;;;;;;;;6151107;23;20104;-68
2022/05/09 02:57:51;;;;;;;2.60;1.95;;;;;;;;;;6150898;23;20347;-69
2022/05/09 03:00:22;;;;;;;3.85;1.67;;;;;;;;;;6147823;23;20246;-64
2022/05/09 03:05:46;;;;;;;5.50;2.05;;;;;;;;;;6150022;23;20026;-70
2022/05/09 03:08:20;;;;;;;2.85;1.60;;;;;;;;;;6150782;23;20509;-68
2022/05/09 03:10:47;;;;;;;4.95;1.73;;;;;;;;;;6150307;23;20053;-70
2022/05/09 03:13:13;;;;;;;3.53;1.95;;;;;;;;;;6151137;23;20056;-69
2022/05/09 03:15:47;;;;;;;3.38;1.98;;;;;;;;;;6150166;23;20080;-69
2022/05/09 03:18:14;;;;;;;2.47;1.60;;;;;;;;;;6149670;23;20024;-50
2022/05/09 03:20:41;;;;;;;7.22;1.70;;;;;;;;;;6150122;23;20096;-58
2022/05/09 03:23:14;;;;;;;3.95;1.90;;;;;;;;;;6149266;23;20033;-58
2022/05/09 03:25:41;;;;;;;4.63;1.58;;;;;;;;;;6150463;23;20052;-58
2022/05/09 03:28:10;;;;;;;5.00;2.20;;;;;;;;;;6150630;23;20060;-59
2022/05/09 03:30:44;;;;;;;3.05;1.85;;;;;;;;;;6149650;23;20040;-58
2022/05/09 03:33:11;;;;;;;3.13;1.98;;;;;;;;;;6150051;23;20080;-59
2022/05/09 03:35:38;;;;;;;6.22;1.80;;;;;;;;;;6150392;23;20075;-57
2022/05/09 03:38:11;;;;;;;4.85;1.70;;;;;;;;;;6150591;23;20028;-66
2022/05/09 03:40:38;;;;;;;6.78;1.85;;;;;;;;;;6149898;23;20413;-64
2022/05/09 03:43:06;;;;;;;4.03;1.67;;;;;;;;;;6150755;23;20719;-63
2022/05/09 03:45:41;;;;;;;2.90;1.70;;;;;;;;;;6149380;23;20040;-63
2022/05/09 03:48:08;;;;;;;4.50;1.90;;;;;;;;;;6149940;23;20400;-64
2022/05/09 03:50:34;;;;;;;6.85;2.00;;;;;;;;;;6149213;23;20109;-64
2022/05/09 03:53:07;;;;;;;6.75;2.10;;;;;;;;;;6149860;23;20509;-64
2022/05/09 03:55:34;;;;;;;3.65;2.15;;;;;;;;;;6150145;23;20022;-53
2022/05/09 03:58:00;;;;;;;4.47;1.80;;;;;;;;;;6150271;23;20051;-63
2022/05/09 04:00:40;;;;;;;3.63;2.00;;;;;;;;;;6147313;23;20053;-63
2022/05/09 04:03:07;;;;;;;3.30;1.90;;;;;;;;;;6150386;23;20048;-63
2022/05/09 04:05:41;;;;;;;3.95;1.80;;;;;;;;;;6149144;23;20102;-63
2022/05/09 04:08:08;;;;;;;4.90;1.88;;;;;;;;;;6149141;23;20045;-63
2022/05/09 04:10:35;;;;;;;;;;;;;;;;;;6147606;23;20029;-64
2022/05/09 04:13:08;;;;;;;2.80;1.80;;;;;;;;;;6148933;23;20471;-63
2022/05/09 04:18:28;;;;;;;4.82;1.80;;;;;;;;;;6150132;23;20026;-57
2022/05/09 04:20:55;;;;;;;2.97;2.00;;;;;;;;;;6150044;23;20053;-57
2022/05/09 04:23:22;;;;;;;5.33;1.53;;;;;;;;;;6149692;23;20060;-57
2022/05/09 04:25:55;;;;;;;3.35;1.55;;;;;;;;;;6147494;23;20432;-57
2022/05/09 04:28:22;;;;;;;3.63;1.77;;;;;;;;;;6147232;23;20049;-56
2022/05/09 04:30:49;;;;;;;1.95;1.75;;;;;;;;;;6147582;23;20032;-57
2022/05/09 04:33:28;;;;;;;4.60;2.40;;;;;;;;;;6147749;23;20025;-60
2022/05/09 04:35:54;;;;;;;3.28;1.90;;;;;;;;;;6146564;23;20087;-57
2022/05/09 04:38:22;;;;;;;5.07;2.17;;;;;;;;;;6147780;23;20063;-57
2022/05/09 04:40:56;;;;;;;4.55;1.95;;;;;;;;;;6149687;23;20068;-56
2022/05/09 04:43:23;;;;;;;;;;;;;;;;;;6148222;23;20026;-57
2022/05/09 04:46:03;;;;;;;2.78;1.70;;;;;;;;;;6149990;23;20738;-56
2022/05/09 04:48:40;;;;;;;3.33;1.75;;;;;;;;;;6149792;23;20468;-58
2022/05/09 04:51:06;;;;;;;6.95;2.15;;;;;;;;;;6150355;23;20025;-58
2022/05/09 04:53:33;;;;;;;9.52;1.88;;;;;;;;;;6150249;23;20029;-59
2022/05/09 04:56:06;;;;;;;5.20;1.80;;;;;;;;;;6149763;23;20096;-68
2022/05/09 04:58:33;;;;;;;5.88;2.35;;;;;;;;;;6148456;23;20419;-68
2022/05/09 05:00:59;;;;;;;6.88;1.80;;;;;;;;;;6145179;23;20025;-67
2022/05/09 05:03:33;;;;;;;5.32;1.75;;;;;;;;;;6148049;23;20018;-68
2022/05/09 05:05:59;;;;;;;5.03;2.17;;;;;;;;;;6149160;23;20053;-67
2022/05/09 05:08:30;;;;;;;5.53;2.13;;;;;;;;;;6150039;23;20096;-68
2022/05/09 05:11:04;;;;;;;4.07;2.00;;;;;;;;;;6150715;23;20036;-63
2022/05/09 05:13:32;;;;;;;3.92;2.05;;;;;;;;;;6152096;23;20051;-59
2022/05/09 05:15:59;;;;;;;6.43;2.30;;;;;;;;;;6152378;23;20053;-67
2022/05/09 05:18:34;;;;;;;6.45;2.50;;;;;;;;;;6152206;23;20025;-68
2022/05/09 05:21:10;;;;;;;9.68;3.10;;;;;;;;;;6151393;23;20498;-67
2022/05/09 05:23:44;;;;;;;9.40;3.00;;;;;;;;;;6149335;23;20060;-67
2022/05/09 05:26:12;;;;;;;9.77;2.85;;;;;;;;;;6151208;23;20036;-67
2022/05/09 05:28:38;;;;;;;6.97;2.63;;;;;;;;;;6151333;23;20084;-67
2022/05/09 05:31:15;;;;;;;12.48;2.78;;;;;;;;;;6151105;23;20068;-49
2022/05/09 05:33:42;;;;;;;11.02;3.45;;;;;;;;;;6151823;23;20028;-54
2022/05/09 05:36:08;;;;;;;8.70;3.17;;;;;;;;;;6152442;23;20065;-51
2022/05/09 05:38:43;;;;;;;7.13;2.85;;;;;;;;;;6151738;23;20053;-53
2022/05/09 05:41:09;;;;;;;7.20;2.90;;;;;;;;;;6151476;23;20359;-51
2022/05/09 05:43:36;;;;;;;7.55;2.80;;;;;;;;;;6151305;23;20025;-53
2022/05/09 05:46:09;;;;;;;8.93;2.60;;;;;;;;;;6151828;23;20396;-50
2022/05/09 05:48:36;;;;;;;9.20;3.10;;;;;;;;;;6151803;23;20032;-57
2022/05/09 05:51:02;;;;;;;13.23;2.58;;;;;;;;;;6151830;23;20096;-54
2022/05/09 05:53:35;;;;;;;10.57;2.80;;;;;;;;;;6151322;23;20022;-62
2022/05/09 05:56:02;;;;;;;6.20;2.65;;;;;;;;;;6151624;23;20049;-62
2022/05/09 05:58:29;;;;;;;9.47;2.90;;;;;;;;;;6152162;23;20060;-62
2022/05/09 06:01:16;;;;;;;9.10;3.75;;;;;;;;;;6149393;23;20068;-62
2022/05/09 06:03:43;;;;;;;9.40;3.42;;;;;;;;;;6151930;23;20522;-62
2022/05/09 06:06:17;;;;;;;8.43;3.08;;;;;;;;;;6151772;23;20045;-62
2022/05/09 06:08:44;;;;;;;10.65;2.97;;;;;;;;;;6151001;23;20454;-62
2022/05/09 06:11:10;;;;;;;10.55;2.85;;;;;;;;;;6150941;23;20017;-54
2022/05/09 06:13:43;;;;;;;8.82;3.30;;;;;;;;;;6151052;23;20032;-52
2022/05/09 06:16:10;;;;;;;10.05;3.33;;;;;;;;;;6151604;23;20491;-53
2022/05/09 06:18:37;;;;;;;8.93;3.10;;;;;;;;;;6150389;23;20021;-51
2022/05/09 06:21:10;;;;;;;9.05;3.55;;;;;;;;;;6151711;23;20084;-51
2022/05/09 06:23:37;;;;;;;12.43;3.88;;;;;;;;;;6150449;23;20022;-53
2022/05/09 06:26:03;;;;;;;9.32;3.45;;;;;;;;;;6150246;23;20025;-52
2022/05/09 06:28:37;;;;;;;8.27;3.20;;;;;;;;;;6151402;23;20025;-64
2022/05/09 06:31:03;;;;;;;8.90;3.50;;;;;;;;;;6150935;23;20022;-55
2022/05/09 06:33:30;;;;;;;9.88;3.15;;;;;;;;;;6151451;23;20447;-58
2022/05/09 06:36:03;;;;;;;9.20;3.00;;;;;;;;;;6150623;23;20021;-56
2022/05/09 06:38:30;;;;;;;12.35;3.17;;;;;;;;;;6150665;23;20406;-57
2022/05/09 06:41:00;;;;;;;18.23;3.42;;;;;;;;;;6151227;23;20491;-57
2022/05/09 06:43:33;;;;;;;14.38;4.10;;;;;;;;;;6151207;23;20026;-56
2022/05/09 06:46:00;;;;;;;11.65;3.00;;;;;;;;;;6151299;23;20077;-63
2022/05/09 06:48:26;;;;;;;10.77;3.35;;;;;;;;;;6149816;23;20021;-58
2022/05/09 06:50:59;;;;;;;10.13;2.85;;;;;;;;;;6150059;23;20514;-70
2022/05/09 06:53:26;;;;;;;11.82;3.05;;;;;;;;;;6150199;23;20029;-70
2022/05/09 06:55:58;;;;;;;12.60;3.25;;;;;;;;;;6151477;23;20486;-71
2022/05/09 06:58:31;;;;;;;8.05;2.70;;;;;;;;;;6151237;23;20052;-72
2022/05/09 07:01:13;;;;;;;13.93;3.38;;;;;;;;;;6148720;23;20064;-71
2022/05/09 07:03:47;;;;;;;13.82;2.85;;;;;;;;;;6151599;23;20021;-71
2022/05/09 07:06:15;;;;;;;12.10;3.50;;;;;;;;;;6151314;23;20534;-62
2022/05/09 07:08:42;;;;;;;13.40;3.03;;;;;;;;;;6150010;23;20249;-62
2022/05/09 07:11:15;;;;;;;7.53;2.78;;;;;;;;;;6150676;23;20076;-63
2022/05/09 07:13:49;;;;;;;11.63;3.55;;;;;;;;;;6151258;23;20084;-62
2022/05/09 07:16:22;;;;;;;8.88;2.70;;;;;;;;;;6150856;23;20060;-62
2022/05/09 07:18:55;;;;;;;16.38;3.17;;;;;;;;;;6150823;23;20022;-62
2022/05/09 07:21:21;;;;;;;14.30;3.42;;;;;;;;;;6151419;23;20028;-62
2022/05/09 07:23:55;;;;;;;10.70;2.90;;;;;;;;;;6151130;23;20021;-54
2022/05/09 07:26:21;;;;;;;10.98;3.28;;;;;;;;;;6150385;23;20029;-59
2022/05/09 07:28:48;;;;;;;6.38;2.42;;;;;;;;;;6150979;23;20017;-59
2022/05/09 07:31:21;;;;;;;11.85;3.00;;;;;;;;;;6150554;23;20037;-58
2022/05/09 07:33:48;;;;;;;10.70;2.47;;;;;;;;;;6149307;23;20029;-58
2022/05/09 07:36:14;;;;;;;10.02;2.40;;;;;;;;;;6151257;23;20022;-59
2022/05/09 07:38:47;;;;;;;12.50;3.33;;;;;;;;;;6149847;23;20543;-58
2022/05/09 07:41:14;;;;;;;10.18;2.70;;;;;;;;;;6150906;23;20057;-59
2022/05/09 07:43:40;;;;;;;8.65;3.08;;;;;;;;;;6149763;23;20359;-62
2022/05/09 07:46:13;;;;;;;7.65;2.70;;;;;;;;;;6151200;23;20049;-53
2022/05/09 07:49:00;;;;;;;16.13;3.17;;;;;;;;;;6150749;23;20022;-58
2022/05/09 07:51:37;;;;;;;10.02;2.95;;;;;;;;;;6150036;23;20060;-59
2022/05/09 07:54:04;;;;;;;11.20;3.00;;;;;;;;;;6150616;23;20355;-59
2022/05/09 07:56:35;;;;;;;11.02;2.75;;;;;;;;;;6149771;23;20029;-58
2022/05/09 07:59:08;;;;;;;11.15;3.22;;;;;;;;;;6150315;23;20060;-58
2022/05/09 08:01:41;;;;;;;15.25;3.97;;;;;;;;;;6148309;23;20029;-59
2022/05/09 08:04:07;;;;;;;11.70;3.10;;;;;;;;;;6151174;23;20053;-59
2022/05/09 08:06:40;;;;;;;17.95;3.25;;;;;;;;;;6150456;23;20045;-58
2022/05/09 08:09:07;;;;;;;15.43;3.28;;;;;;;;;;6149553;23;20459;-58
2022/05/09 08:11:33;;;;;;;10.73;2.97;;;;;;;;;;6150930;23;20026;-59
2022/05/09 08:14:07;;;;;;;12.45;2.95;;;;;;;;;;6150877;23;20021;-59
2022/05/09 08:16:36;;;;;;;11.15;3.17;;;;;;;;;;6150659;23;20025;-58
2022/05/09 08:19:03;;;;;;;13.00;3.13;;;;;;;;;;6150827;23;20025;-58
2022/05/09 08:21:37;;;;;;;5.82;2.63;;;;;;;;;;6149714;23;20037;-59
2022/05/09 08:24:06;;;;;;;12.27;2.45;;;;;;;;;;6149914;23;20048;-59
2022/05/09 08:26:33;;;;;;;8.32;2.45;;;;;;;;;;6150807;23;20018;-50
2022/05/09 08:29:07;;;;;;;8.68;2.45;;;;;;;;;;6150344;23;20478;-54
2022/05/09 08:31:34;;;;;;;5.75;2.00;;;;;;;;;;6150389;23;20025;-50
2022/05/09 08:34:00;;;;;;;11.55;2.50;;;;;;;;;;6150286;23;20029;-47
2022/05/09 08:36:50;;;;;;;4.40;1.70;;;;;;;;;;6150325;23;20057;-54
2022/05/09 08:39:16;;;;;;;5.90;2.00;;;;;;;;;;6150535;23;20018;-51
2022/05/09 08:41:53;;;;;;;8.98;2.20;;;;;;;;;;6150752;23;20021;-58
2022/05/09 08:44:23;;;;;;;8.43;1.77;;;;;;;;;;6150989;23;20033;-73
2022/05/09 08:47:03;;;;;;;4.43;1.52;;;;;;;;;;6151254;23;20025;-75
2022/05/09 08:49:38;;;;;;;4.68;1.60;;;;;;;;;;6151201;23;20029;-74
2022/05/09 08:52:25;;;;;;;5.78;1.88;;;;;;;;;;6153184;23;20026;-74
2022/05/09 08:54:52;;;;;;;5.45;2.20;;;;;;;;;;6151027;23;20026;-73
2022/05/09 08:57:29;;;;;;;3.75;1.48;;;;;;;;;;6152539;23;20351;-74
2022/05/09 09:00:16;;;;;;;3.08;1.50;;;;;;;;;;6150288;23;20022;-53
2022/05/09 09:02:58;;;;;;;4.72;1.20;;;;;;;;;;6151991;23;20045;-59
2022/05/09 09:05:26;;;;;;;3.78;1.58;;;;;;;;;;6151979;23;20027;-59
2022/05/09 09:07:59;;;;;;;2.47;1.20;;;;;;;;;;6151977;23;20411;-59
2022/05/09 09:10:31;;;;;;;2.00;1.15;;;;;;;;;;6151812;23;20105;-59
2022/05/09 09:13:10;;;;;;;7.10;1.63;;;;;;;;;;6152431;23;20036;-59
2022/05/09 09:15:52;;;;;;;2.90;1.27;;;;;;;;;;6152305;23;20025;-59
2022/05/09 09:18:31;;;;;;;3.88;1.27;;;;;;;;;;6151143;23;20104;-64
2022/05/09 09:21:23;;;;;;;3.97;1.30;;;;;;;;;;6152459;23;20097;-51
2022/05/09 09:24:04;;;;;;;2.58;1.35;;;;;;;;;;6151828;23;20076;-59
2022/05/09 09:26:45;;;;;;;3.63;1.10;;;;;;;;;;6151105;23;20071;-59
2022/05/09 09:29:14;;;;;;;4.32;1.15;;;;;;;;;;6152077;23;20056;-59
2022/05/09 09:31:50;;;;;;;4.18;1.10;;;;;;;;;;6151741;23;20076;-59
2022/05/09 09:34:36;;;;;;;1.67;1.05;;;;;;;;;;6151395;23;20021;-60
2022/05/09 09:37:28;;;;;;;3.42;1.45;;;;;;;;;;6150932;23;20407;-59
2022/05/09 09:39:54;;;;;;;4.15;1.50;;;;;;;;;;6151690;23;20095;-61
2022/05/09 09:42:27;;;;;;;2.55;1.20;;;;;;;;;;6152561;23;20044;-59
2022/05/09 09:44:56;;;;;;;4.63;1.20;;;;;;;;;;6151961;23;20060;-59
2022/05/09 09:47:24;;;;;;;3.20;1.40;;;;;;;;;;6151029;23;20061;-59
2022/05/09 09:50:24;;;;;;;2.60;1.40;;;;;;;;;;6151284;23;20018;-59
2022/05/09 09:52:52;;;;;;;3.65;1.25;;;;;;;;;;6152208;23;20025;-59
2022/05/09 09:55:36;;;;;;;5.60;1.30;;;;;;;;;;6151590;23;20060;-59
2022/05/09 09:58:21;;;;;;;3.33;1.30;;;;;;;;;;6151863;23;20068;-59
2022/05/09 10:01:11;;;;;;;2.38;1.40;;;;;;;;;;6149688;23;20475;-60
2022/05/09 10:03:40;;;;;;;3.75;1.30;;;;;;;;;;6150903;23;20045;-61
2022/05/09 10:06:14;;;;;;;7.72;1.60;;;;;;;;;;6152243;23;20099;-61
2022/05/09 10:08:41;;;;;;;8.00;1.50;;;;;;;;;;6151741;23;20040;-61
2022/05/09 10:11:10;;;;;;;2.90;1.83;;;;;;;;;;6151540;23;20064;-61
2022/05/09 10:13:45;;;;;;;5.50;1.50;;;;;;;;;;6151320;23;20061;-61
2022/05/09 10:16:28;;;;;;;4.60;1.70;;;;;;;;;;6152085;23;20080;-63
2022/05/09 10:19:03;;;;;;;2.40;1.50;;;;;;;;;;6152118;23;20391;-63
2022/05/09 10:24:55;;;;;;;2.50;1.40;;;;;;;;;;6151553;23;20359;-63
2022/05/09 10:27:22;;;;;;;4.03;1.63;;;;;;;;;;6151175;23;20028;-63
2022/05/09 10:29:57;;;;;;;3.05;1.70;;;;;;;;;;6150854;23;20463;-63
2022/05/09 10:32:44;;;;;;;3.63;1.63;;;;;;;;;;6151473;23;20028;-63
2022/05/09 10:35:36;;;;;;;6.03;2.00;;;;;;;;;;6135635;23;20088;-60
2022/05/09 10:38:05;;;;;;;5.97;1.60;;;;;;;;;;6151028;23;20037;-63
2022/05/09 10:40:40;;;;;;;1.45;1.17;;;;;;;;;;6150683;23;20026;-63
2022/05/09 10:43:21;;;;;;;2.63;1.50;;;;;;;;;;6150759;23;20541;-63
2022/05/09 10:45:54;;;;;;;8.50;1.75;;;;;;;;;;6151611;23;20025;-63
2022/05/09 10:48:21;;;;;;;4.10;1.70;;;;;;;;;;6151288;23;20041;-63
2022/05/09 10:51:06;;;;;;;5.22;1.58;;;;;;;;;;6150527;23;20056;-63
2022/05/09 10:54:08;;;;;;;4.65;1.20;;;;;;;;;;6151697;23;20097;-52
2022/05/09 10:56:39;;;;;;;2.40;1.30;;;;;;;;;;6150992;23;20359;-53
2022/05/09 10:59:19;;;;;;;3.53;1.33;;;;;;;;;;6150252;23;20101;-63
2022/05/09 11:02:01;;;;;;;4.38;1.38;;;;;;;;;;6147322;23;20093;-63
2022/05/09 11:04:34;;;;;;;;;;;;;;;;;;6151343;23;20406;-63
2022/05/09 11:07:16;;;;;;;10.40;1.65;;;;;;;;;;6151656;23;19924;-62
2022/05/09 11:10:02;;;;;;;5.20;1.67;;;;;;;;;;6149413;23;20495;-63
2022/05/09 11:12:31;;;;;;;3.67;1.50;;;;;;;;;;6151087;23;20021;-55
2022/05/09 11:15:31;;;;;;;5.75;1.55;;;;;;;;;;6151353;23;20514;-60
2022/05/09 11:18:07;;;;;;;8.57;1.75;;;;;;;;;;6149202;23;20080;-63
2022/05/09 11:20:45;;;;;;;3.80;1.70;;;;;;;;;;6150914;23;20056;-62
2022/05/09 11:23:32;;;;;;;6.03;1.65;;;;;;;;;;6150580;23;20067;-62
2022/05/09 11:26:11;;;;;;;3.67;1.35;;;;;;;;;;6151419;23;20053;-62
2022/05/09 11:28:38;;;;;;;6.68;1.33;;;;;;;;;;6150096;23;20061;-62
2022/05/09 11:31:12;;;;;;;3.55;1.70;;;;;;;;;;6151286;23;20096;-62
2022/05/09 11:34:02;;;;;;;4.90;1.50;;;;;;;;;;6150698;23;20092;-62
2022/05/09 11:36:37;;;;;;;5.00;1.52;;;;;;;;;;6150507;23;20025;-52
2022/05/09 11:39:23;;;;;;;8.25;1.60;;;;;;;;;;6151271;23;20025;-55
2022/05/09 11:45:07;;;;;;;11.00;1.58;;;;;;;;;;6150538;23;20415;-54
2022/05/09 11:47:38;;;;;;;3.30;1.67;;;;;;;;;;6149575;23;20072;-53
2022/05/09 11:50:17;;;;;;;3.25;1.55;;;;;;;;;;6150891;23;20060;-52
2022/05/09 11:52:44;;;;;;;7.90;1.70;;;;;;;;;;6150070;23;20357;-60
2022/05/09 11:55:17;;;;;;;7.55;1.73;;;;;;;;;;6150430;23;20467;-60
2022/05/09 11:57:53;;;;;;;3.97;1.80;;;;;;;;;;6150486;23;20028;-60
2022/05/09 12:00:35;;;;;;;8.45;1.80;;;;;;;;;;6148733;23;20025;-60
2022/05/09 12:03:09;;;;;;;4.93;1.77;;;;;;;;;;6150673;23;20060;-61
2022/05/09 12:05:38;;;;;;;7.95;1.40;;;;;;;;;;6149908;23;20030;-61
2022/05/09 12:08:04;;;;;;;;;;;;;;;;;;6151658;23;20076;-60
2022/05/09 12:11:21;;;;;;;4.43;1.73;;;;;;;;;;6149888;23;19948;-50
2022/05/09 12:13:55;;;;;;;6.35;1.77;;;;;;;;;;6146961;23;20060;-60
2022/05/09 12:16:39;;;;;;;5.30;1.63;;;;;;;;;;6151410;23;20364;-60
2022/05/09 12:19:14;;;;;;;5.13;1.70;;;;;;;;;;6150636;23;20025;-60
2022/05/09 12:22:06;;;;;;;4.35;1.67;;;;;;;;;;6151217;23;20025;-60
2022/05/09 12:24:34;;;;;;;6.20;1.60;;;;;;;;;;6151878;23;20072;-60
2022/05/09 12:27:26;;;;;;;5.03;1.75;;;;;;;;;;6151923;23;20521;-60
2022/05/09 12:29:55;;;;;;;5.57;1.77;;;;;;;;;;6152480;23;20057;-63
2022/05/09 12:32:30;;;;;;;9.45;1.92;;;;;;;;;;6152753;23;20400;-53
2022/05/09 12:34:58;;;;;;;8.45;2.13;;;;;;;;;;6151549;23;20413;-52
2022/05/09 12:37:45;;;;;;;9.10;2.25;;;;;;;;;;6152513;23;20025;-51
2022/05/09 12:40:20;;;;;;;5.65;2.03;;;;;;;;;;6151749;23;20546;-49
2022/05/09 12:42:48;;;;;;;6.82;2.05;;;;;;;;;;6152149;23;20057;-54
2022/05/09 12:45:16;;;;;;;9.73;2.13;;;;;;;;;;6152408;23;20051;-54
2022/05/09 12:47:50;;;;;;;5.90;2.05;;;;;;;;;;6152649;23;20025;-55
2022/05/09 12:50:25;;;;;;;5.70;2.17;;;;;;;;;;6152493;23;20104;-60
2022/05/09 12:53:09;;;;;;;7.43;2.17;;;;;;;;;;6152737;23;20037;-69
2022/05/09 12:55:52;;;;;;;5.70;2.10;;;;;;;;;;6151884;23;20475;-70
2022/05/09 12:58:37;;;;;;;4.90;2.00;;;;;;;;;;6152086;23;20380;-69
2022/05/09 13:01:25;;;;;;;11.05;2.05;;;;;;;;;;6150423;23;20025;-68
2022/05/09 13:04:28;;;;;;;6.95;1.75;;;;;;;;;;6151497;23;20029;-67
2022/05/09 13:06:56;;;;;;;3.22;1.65;;;;;;;;;;6152887;23;20395;-63
2022/05/09 13:09:34;;;;;;;7.30;2.10;;;;;;;;;;6152216;23;20022;-62
2022/05/09 13:12:03;;;;;;;6.30;2.13;;;;;;;;;;6153032;23;20048;-61
2022/05/09 13:14:38;;;;;;;5.18;1.98;;;;;;;;;;6151187;23;20032;-61
2022/05/09 13:17:11;;;;;;;4.93;1.90;;;;;;;;;;6151970;23;20053;-61
2022/05/09 13:19:49;;;;;;;5.32;2.00;;;;;;;;;;6152372;23;20033;-61
2022/05/09 13:22:38;;;;;;;8.77;2.10;;;;;;;;;;6152884;23;20048;-61
2022/05/09 13:25:27;;;;;;;4.20;1.88;;;;;;;;;;6149486;23;20021;-61
2022/05/09 13:27:56;;;;;;;10.02;2.00;;;;;;;;;;6152215;23;20550;-53
2022/05/09 13:30:59;;;;;;;7.47;1.95;;;;;;;;;;6151222;23;20094;-62
2022/05/09 13:33:28;;;;;;;4.47;2.00;;;;;;;;;;6145399;23;20553;-61
2022/05/09 13:36:04;;;;;;;5.30;1.98;;;;;;;;;;6151937;23;20029;-61
2022/05/09 13:38:34;;;;;;;6.78;1.77;;;;;;;;;;6151401;23;20033;-61
2022/05/09 13:41:06;;;;;;;6.28;1.95;;;;;;;;;;6152396;23;20092;-62
2022/05/09 13:43:43;;;;;;;3.33;1.80;;;;;;;;;;6150594;23;20506;-61
2022/05/09 13:46:11;;;;;;;3.47;2.00;;;;;;;;;;6151738;23;20029;-64
2022/05/09 13:48:39;;;;;;;4.57;1.80;;;;;;;;;;6152054;23;20021;-61
2022/05/09 13:51:13;;;;;;;5.15;2.13;;;;;;;;;;6151723;23;20056;-61
2022/05/09 13:53:45;;;;;;;6.07;1.70;;;;;;;;;;6151383;23;20049;-61
2022/05/09 13:56:14;;;;;;;4.07;1.73;;;;;;;;;;6151917;23;20060;-60
2022/05/09 13:58:48;;;;;;;5.85;2.15;;;;;;;;;;6151351;23;20100;-60
2022/05/09 14:01:28;;;;;;;7.00;2.10;;;;;;;;;;6147976;23;20056;-60
2022/05/09 14:04:04;;;;;;;6.07;1.88;;;;;;;;;;6151711;23;20018;-53
2022/05/09 14:06:32;;;;;;;3.78;1.80;;;;;;;;;;6151278;23;20021;-61
2022/05/09 14:09:01;;;;;;;8.07;1.67;;;;;;;;;;6151490;23;20367;-54
2022/05/09 14:11:37;;;;;;;5.50;2.00;;;;;;;;;;6150781;23;20100;-55
2022/05/09 14:14:04;;;;;;;4.00;2.00;;;;;;;;;;6151389;23;20068;-55
2022/05/09 14:16:32;;;;;;;;;;;;;;;;;;6152066;23;20022;-55
2022/05/09 14:19:10;;;;;;;7.60;1.70;;;;;;;;;;6151776;23;19932;-54
2022/05/09 14:21:52;;;;;;;4.20;1.77;;;;;;;;;;6150933;23;20080;-55
2022/05/09 14:24:30;;;;;;;6.93;1.90;;;;;;;;;;6151235;23;20064;-61
2022/05/09 14:29:53;;;;;;;7.30;2.03;;;;;;;;;;6150515;23;20091;-63
2022/05/09 14:32:38;;;;;;;6.25;1.70;;;;;;;;;;6152170;23;20060;-63
2022/05/09 14:35:11;;;;;;;6.90;1.80;;;;;;;;;;6150050;23;20053;-64
2022/05/09 14:37:53;;;;;;;5.85;1.70;;;;;;;;;;6149594;23;20025;-63
2022/05/09 14:40:28;;;;;;;7.72;2.10;;;;;;;;;;6151093;23;20100;-63
2022/05/09 14:43:00;;;;;;;7.43;1.67;;;;;;;;;;6151769;23;20084;-67
2022/05/09 14:45:32;;;;;;;4.13;1.80;;;;;;;;;;6150663;23;20025;-60
2022/05/09 14:48:18;;;;;;;5.28;1.90;;;;;;;;;;6151524;23;20030;-60
2022/05/09 14:50:52;;;;;;;6.18;1.95;;;;;;;;;;6150187;23;20333;-60
2022/05/09 14:53:41;;;;;;;6.13;2.13;;;;;;;;;;6150386;23;20606;-61
2022/05/09 14:59:03;;;;;;;4.15;1.70;;;;;;;;;;6149844;23;20091;-60
2022/05/09 15:01:48;;;;;;;10.55;2.10;;;;;;;;;;6150660;23;20021;-60
2022/05/09 15:04:21;;;;;;;5.40;2.00;;;;;;;;;;6151220;23;20088;-53
2022/05/09 15:06:48;;;;;;;9.25;1.98;;;;;;;;;;6151790;23;20025;-60
2022/05/09 15:09:14;;;;;;;5.55;1.90;;;;;;;;;;6151258;23;20025;-60
2022/05/09 15:11:48;;;;;;;3.47;1.60;;;;;;;;;;6150880;23;20057;-60
2022/05/09 15:14:17;;;;;;;8.77;2.13;;;;;;;;;;6151414;23;20048;-60
2022/05/09 15:16:47;;;;;;;7.28;2.03;;;;;;;;;;6150563;23;20056;-60
2022/05/09 15:19:25;;;;;;;8.40;2.42;;;;;;;;;;6151103;23;20108;-60
2022/05/09 15:21:58;;;;;;;5.05;2.05;;;;;;;;;;6151108;23;20018;-61
2022/05/09 15:24:39;;;;;;;7.05;1.65;;;;;;;;;;6150887;23;20400;-61
2022/05/09 15:27:05;;;;;;;4.85;1.67;;;;;;;;;;6150254;23;20482;-60
2022/05/09 15:29:39;;;;;;;9.07;1.90;;;;;;;;;;6150928;23;20045;-60
2022/05/09 15:32:06;;;;;;;7.07;1.80;;;;;;;;;;6150128;23;20064;-61
2022/05/09 15:34:32;;;;;;;8.77;1.95;;;;;;;;;;6147667;23;20032;-60
2022/05/09 15:37:05;;;;;;;3.13;1.58;;;;;;;;;;6149250;23;20534;-60
2022/05/09 15:39:34;;;;;;;6.22;2.00;;;;;;;;;;6149194;23;20074;-61